sensor_id;sensor_type;location;lat;lon;timestamp;pressure;altitude;pressure_sealevel;temperature;humidity
50682;BME280;36779;52.168;20.878;2023-03-14T00:01:23;98879.95;;;8.52;71.89
50682;BME280;36779;52.168;20.878;2023-03-14T00:03:52;98877.77;;;8.49;71.99
50682;BME280;36779;52.168;20.878;2023-03-14T00:06:22;98872.89;;;8.47;71.87
50682;BME280;36779;52.168;20.878;2023-03-14T00:08:51;98871.45;;;8.44;72.01
50682;BME280;36779;52.168;20.878;2023-03-14T00:11:21;98868.34;;;8.41;71.96
50682;BME280;36779;52.168;20.878;2023-03-14T00:13:50;98862.31;;;8.39;71.85
50682;BME280;36779;52.168;20.878;2023-03-14T00:16:20;98857.27;;;8.38;72.06
50682;BME280;36779;52.168;20.878;2023-03-14T00:18:49;98858.88;;;8.37;71.95
50682;BME280;36779;52.168;20.878;2023-03-14T00:21:20;98857.87;;;8.36;71.89
50682;BME280;36779;52.168;20.878;2023-03-14T00:23:48;98855.24;;;8.34;71.91
50682;BME280;36779;52.168;20.878;2023-03-14T00:26:20;98853.41;;;8.35;71.90
50682;BME280;36779;52.168;20.878;2023-03-14T00:28:52;98847.07;;;8.33;71.91
50682;BME280;36779;52.168;20.878;2023-03-14T00:31:22;98852.48;;;8.32;71.86
50682;BME280;36779;52.168;20.878;2023-03-14T00:33:53;98847.27;;;8.30;71.77
50682;BME280;36779;52.168;20.878;2023-03-14T00:36:22;98841.88;;;8.28;71.83
50682;BME280;36779;52.168;20.878;2023-03-14T00:38:52;98836.95;;;8.26;71.94
50682;BME280;36779;52.168;20.878;2023-03-14T00:41:24;98833.50;;;8.24;71.96
50682;BME280;36779;52.168;20.878;2023-03-14T00:43:53;98832.45;;;8.22;71.87
50682;BME280;36779;52.168;20.878;2023-03-14T00:46:22;98820.52;;;8.18;71.70
50682;BME280;36779;52.168;20.878;2023-03-14T00:48:51;98816.55;;;8.13;71.75
50682;BME280;36779;52.168;20.878;2023-03-14T00:51:19;98807.00;;;8.11;71.83
50682;BME280;36779;52.168;20.878;2023-03-14T00:53:48;98801.41;;;8.09;71.77
50682;BME280;36779;52.168;20.878;2023-03-14T00:56:17;98802.02;;;8.06;71.73
50682;BME280;36779;52.168;20.878;2023-03-14T00:58:46;98803.94;;;8.04;71.63
50682;BME280;36779;52.168;20.878;2023-03-14T01:01:17;98794.59;;;8.02;71.71
50682;BME280;36779;52.168;20.878;2023-03-14T01:03:47;98794.88;;;7.99;71.77
50682;BME280;36779;52.168;20.878;2023-03-14T01:06:18;98793.35;;;7.97;71.76
50682;BME280;36779;52.168;20.878;2023-03-14T01:08:48;98789.86;;;7.92;71.61
50682;BME280;36779;52.168;20.878;2023-03-14T01:11:19;98785.84;;;7.88;71.60
50682;BME280;36779;52.168;20.878;2023-03-14T01:13:48;98788.73;;;7.83;71.61
50682;BME280;36779;52.168;20.878;2023-03-14T01:16:18;98786.46;;;7.76;71.62
50682;BME280;36779;52.168;20.878;2023-03-14T01:18:48;98787.09;;;7.73;71.59
50682;BME280;36779;52.168;20.878;2023-03-14T01:21:19;98777.39;;;7.70;71.60
50682;BME280;36779;52.168;20.878;2023-03-14T01:23:49;98775.75;;;7.67;71.57
50682;BME280;36779;52.168;20.878;2023-03-14T01:26:20;98777.99;;;7.63;71.53
50682;BME280;36779;52.168;20.878;2023-03-14T01:28:53;98786.91;;;7.59;71.55
50682;BME280;36779;52.168;20.878;2023-03-14T01:31:23;98784.54;;;7.54;71.48
50682;BME280;36779;52.168;20.878;2023-03-14T01:33:53;98781.73;;;7.48;71.46
50682;BME280;36779;52.168;20.878;2023-03-14T01:36:25;98777.55;;;7.42;71.46
50682;BME280;36779;52.168;20.878;2023-03-14T01:38:54;98775.55;;;7.36;71.46
50682;BME280;36779;52.168;20.878;2023-03-14T01:41:26;98780.88;;;7.30;71.39
50682;BME280;36779;52.168;20.878;2023-03-14T01:43:57;98783.41;;;7.23;71.51
50682;BME280;36779;52.168;20.878;2023-03-14T01:46:34;98778.79;;;7.19;71.56
50682;BME280;36779;52.168;20.878;2023-03-14T01:49:24;98779.84;;;7.16;71.49
50682;BME280;36779;52.168;20.878;2023-03-14T01:52:07;98775.53;;;7.14;71.49
50682;BME280;36779;52.168;20.878;2023-03-14T01:54:40;98771.16;;;7.13;71.58
50682;BME280;36779;52.168;20.878;2023-03-14T01:57:14;98767.34;;;7.14;71.57
50682;BME280;36779;52.168;20.878;2023-03-14T01:59:48;98763.50;;;7.14;71.55
50682;BME280;36779;52.168;20.878;2023-03-14T02:02:19;98760.14;;;7.12;71.63
50682;BME280;36779;52.168;20.878;2023-03-14T02:04:48;98762.58;;;7.10;71.55
50682;BME280;36779;52.168;20.878;2023-03-14T02:07:21;98758.70;;;7.05;71.56
50682;BME280;36779;52.168;20.878;2023-03-14T02:09:59;98763.27;;;6.99;71.56
50682;BME280;36779;52.168;20.878;2023-03-14T02:12:33;98751.77;;;6.95;71.42
50682;BME280;36779;52.168;20.878;2023-03-14T02:15:25;98748.66;;;6.90;71.44
50682;BME280;36779;52.168;20.878;2023-03-14T02:18:02;98749.38;;;6.85;71.46
50682;BME280;36779;52.168;20.878;2023-03-14T02:21:14;98744.68;;;6.82;71.58
50682;BME280;36779;52.168;20.878;2023-03-14T02:23:51;98741.95;;;6.80;71.52
50682;BME280;36779;52.168;20.878;2023-03-14T02:26:27;98731.94;;;6.78;71.42
50682;BME280;36779;52.168;20.878;2023-03-14T02:28:56;98725.80;;;6.76;71.45
50682;BME280;36779;52.168;20.878;2023-03-14T02:31:25;98721.23;;;6.74;71.48
50682;BME280;36779;52.168;20.878;2023-03-14T02:33:55;98712.47;;;6.71;71.43
50682;BME280;36779;52.168;20.878;2023-03-14T02:36:26;98704.30;;;6.67;71.41
50682;BME280;36779;52.168;20.878;2023-03-14T02:39:01;98702.44;;;6.63;71.47
50682;BME280;36779;52.168;20.878;2023-03-14T02:41:35;98693.40;;;6.59;71.51
50682;BME280;36779;52.168;20.878;2023-03-14T02:44:06;98694.48;;;6.54;71.45
50682;BME280;36779;52.168;20.878;2023-03-14T02:46:35;98693.56;;;6.50;71.50
50682;BME280;36779;52.168;20.878;2023-03-14T02:49:09;98691.00;;;6.45;71.49
50682;BME280;36779;52.168;20.878;2023-03-14T02:51:40;98694.36;;;6.42;71.38
50682;BME280;36779;52.168;20.878;2023-03-14T02:54:11;98694.55;;;6.40;71.45
50682;BME280;36779;52.168;20.878;2023-03-14T02:56:40;98695.48;;;6.40;71.37
50682;BME280;36779;52.168;20.878;2023-03-14T02:59:13;98690.86;;;6.40;71.42
50682;BME280;36779;52.168;20.878;2023-03-14T03:02:00;98689.63;;;6.41;71.55
50682;BME280;36779;52.168;20.878;2023-03-14T03:04:29;98689.23;;;6.42;71.48
50682;BME280;36779;52.168;20.878;2023-03-14T03:06:58;98689.67;;;6.41;71.52
50682;BME280;36779;52.168;20.878;2023-03-14T03:09:27;98693.91;;;6.40;71.49
50682;BME280;36779;52.168;20.878;2023-03-14T03:11:56;98693.89;;;6.38;71.50
50682;BME280;36779;52.168;20.878;2023-03-14T03:14:27;98695.07;;;6.35;71.59
50682;BME280;36779;52.168;20.878;2023-03-14T03:16:57;98691.74;;;6.32;71.50
50682;BME280;36779;52.168;20.878;2023-03-14T03:19:26;98685.42;;;6.29;71.43
50682;BME280;36779;52.168;20.878;2023-03-14T03:21:55;98682.63;;;6.26;71.45
50682;BME280;36779;52.168;20.878;2023-03-14T03:24:23;98681.06;;;6.24;71.50
50682;BME280;36779;52.168;20.878;2023-03-14T03:26:53;98679.84;;;6.24;71.58
50682;BME280;36779;52.168;20.878;2023-03-14T03:29:22;98679.69;;;6.25;71.47
50682;BME280;36779;52.168;20.878;2023-03-14T03:31:54;98678.52;;;6.26;71.42
50682;BME280;36779;52.168;20.878;2023-03-14T03:34:23;98680.87;;;6.27;71.55
50682;BME280;36779;52.168;20.878;2023-03-14T03:36:55;98681.16;;;6.27;71.60
50682;BME280;36779;52.168;20.878;2023-03-14T03:39:24;98681.96;;;6.27;71.59
50682;BME280;36779;52.168;20.878;2023-03-14T03:41:53;98670.45;;;6.25;71.60
50682;BME280;36779;52.168;20.878;2023-03-14T03:44:23;98667.02;;;6.25;71.60
50682;BME280;36779;52.168;20.878;2023-03-14T03:46:53;98661.02;;;6.23;71.55
50682;BME280;36779;52.168;20.878;2023-03-14T03:49:22;98660.55;;;6.23;71.57
50682;BME280;36779;52.168;20.878;2023-03-14T03:51:50;98648.98;;;6.22;71.65
50682;BME280;36779;52.168;20.878;2023-03-14T03:54:20;98650.69;;;6.23;71.63
50682;BME280;36779;52.168;20.878;2023-03-14T03:56:49;98655.79;;;6.23;71.52
50682;BME280;36779;52.168;20.878;2023-03-14T03:59:19;98660.42;;;6.24;71.57
50682;BME280;36779;52.168;20.878;2023-03-14T04:01:49;98666.61;;;6.25;71.53
50682;BME280;36779;52.168;20.878;2023-03-14T04:04:19;98672.43;;;6.27;71.56
50682;BME280;36779;52.168;20.878;2023-03-14T04:06:50;98667.45;;;6.27;71.49
50682;BME280;36779;52.168;20.878;2023-03-14T04:09:19;98675.05;;;6.25;71.56
50682;BME280;36779;52.168;20.878;2023-03-14T04:12:08;98683.14;;;6.24;71.64
50682;BME280;36779;52.168;20.878;2023-03-14T04:14:59;98688.90;;;6.22;71.57
50682;BME280;36779;52.168;20.878;2023-03-14T04:17:28;98688.20;;;6.17;71.42
50682;BME280;36779;52.168;20.878;2023-03-14T04:19:57;98685.67;;;6.11;71.41
50682;BME280;36779;52.168;20.878;2023-03-14T04:22:34;98675.48;;;6.06;71.32
50682;BME280;36779;52.168;20.878;2023-03-14T04:25:07;98664.13;;;6.02;71.43
50682;BME280;36779;52.168;20.878;2023-03-14T04:27:41;98671.80;;;5.99;71.34
50682;BME280;36779;52.168;20.878;2023-03-14T04:30:18;98682.23;;;5.95;71.29
50682;BME280;36779;52.168;20.878;2023-03-14T04:32:52;98682.99;;;5.93;71.29
50682;BME280;36779;52.168;20.878;2023-03-14T04:35:23;98679.67;;;5.93;71.29
50682;BME280;36779;52.168;20.878;2023-03-14T04:37:56;98680.72;;;5.93;71.41
50682;BME280;36779;52.168;20.878;2023-03-14T04:40:26;98673.25;;;5.94;71.42
50682;BME280;36779;52.168;20.878;2023-03-14T04:42:59;98673.10;;;5.95;71.44
50682;BME280;36779;52.168;20.878;2023-03-14T04:45:28;98659.31;;;5.95;71.42
50682;BME280;36779;52.168;20.878;2023-03-14T04:48:00;98646.09;;;5.95;71.43
50682;BME280;36779;52.168;20.878;2023-03-14T04:50:30;98637.58;;;5.95;71.48
50682;BME280;36779;52.168;20.878;2023-03-14T04:52:59;98634.48;;;5.96;71.49
50682;BME280;36779;52.168;20.878;2023-03-14T04:55:28;98632.39;;;5.98;71.58
50682;BME280;36779;52.168;20.878;2023-03-14T04:57:58;98629.10;;;6.00;71.67
50682;BME280;36779;52.168;20.878;2023-03-14T05:00:28;98624.95;;;6.02;71.62
50682;BME280;36779;52.168;20.878;2023-03-14T05:03:15;98620.44;;;6.05;71.58
50682;BME280;36779;52.168;20.878;2023-03-14T05:05:53;98620.52;;;6.08;71.55
50682;BME280;36779;52.168;20.878;2023-03-14T05:08:43;98613.52;;;6.15;71.61
50682;BME280;36779;52.168;20.878;2023-03-14T05:11:13;98607.26;;;6.21;71.61
50682;BME280;36779;52.168;20.878;2023-03-14T05:13:50;98596.41;;;6.28;71.66
50682;BME280;36779;52.168;20.878;2023-03-14T05:16:19;98585.63;;;6.33;71.65
50682;BME280;36779;52.168;20.878;2023-03-14T05:18:57;98585.63;;;6.36;71.62
50682;BME280;36779;52.168;20.878;2023-03-14T05:21:53;98597.56;;;6.40;71.61
50682;BME280;36779;52.168;20.878;2023-03-14T05:24:28;98606.56;;;6.41;71.58
50682;BME280;36779;52.168;20.878;2023-03-14T05:27:05;98610.32;;;6.42;71.50
50682;BME280;36779;52.168;20.878;2023-03-14T05:29:52;98599.55;;;6.42;71.61
50682;BME280;36779;52.168;20.878;2023-03-14T05:32:38;98595.41;;;6.42;71.48
50682;BME280;36779;52.168;20.878;2023-03-14T05:35:37;98589.32;;;6.41;71.50
50682;BME280;36779;52.168;20.878;2023-03-14T05:38:18;98586.05;;;6.40;71.53
50682;BME280;36779;52.168;20.878;2023-03-14T05:41:06;98579.60;;;6.41;71.39
50682;BME280;36779;52.168;20.878;2023-03-14T05:43:37;98573.58;;;6.44;71.43
50682;BME280;36779;52.168;20.878;2023-03-14T05:46:30;98569.90;;;6.48;71.29
50682;BME280;36779;52.168;20.878;2023-03-14T05:49:23;98566.93;;;6.51;71.48
50682;BME280;36779;52.168;20.878;2023-03-14T05:52:00;98563.29;;;6.55;71.51
50682;BME280;36779;52.168;20.878;2023-03-14T05:54:49;98559.76;;;6.61;71.51
50682;BME280;36779;52.168;20.878;2023-03-14T05:57:28;98549.10;;;6.69;71.55
50682;BME280;36779;52.168;20.878;2023-03-14T06:00:18;98537.61;;;6.79;71.74
50682;BME280;36779;52.168;20.878;2023-03-14T06:02:57;98537.63;;;6.91;71.73
50682;BME280;36779;52.168;20.878;2023-03-14T06:05:28;98535.27;;;7.06;71.87
50682;BME280;36779;52.168;20.878;2023-03-14T06:08:00;98531.86;;;7.24;71.89
50682;BME280;36779;52.168;20.878;2023-03-14T06:10:31;98520.80;;;7.38;71.86
50682;BME280;36779;52.168;20.878;2023-03-14T06:13:02;98522.05;;;7.48;71.81
50682;BME280;36779;52.168;20.878;2023-03-14T06:15:34;98518.22;;;7.52;71.66
50682;BME280;36779;52.168;20.878;2023-03-14T06:18:08;98520.66;;;7.54;71.47
50682;BME280;36779;52.168;20.878;2023-03-14T06:20:38;98519.58;;;7.57;71.49
50682;BME280;36779;52.168;20.878;2023-03-14T06:23:09;98516.78;;;7.60;71.43
50682;BME280;36779;52.168;20.878;2023-03-14T06:25:37;98525.83;;;7.62;71.53
50682;BME280;36779;52.168;20.878;2023-03-14T06:28:06;98530.11;;;7.66;71.44
50682;BME280;36779;52.168;20.878;2023-03-14T06:30:36;98522.91;;;7.73;71.50
50682;BME280;36779;52.168;20.878;2023-03-14T06:33:07;98526.54;;;7.81;71.47
50682;BME280;36779;52.168;20.878;2023-03-14T06:35:39;98519.78;;;7.87;71.41
50682;BME280;36779;52.168;20.878;2023-03-14T06:38:08;98519.38;;;7.91;71.40
50682;BME280;36779;52.168;20.878;2023-03-14T06:40:37;98515.98;;;7.94;71.29
50682;BME280;36779;52.168;20.878;2023-03-14T06:43:13;98520.77;;;7.96;71.32
50682;BME280;36779;52.168;20.878;2023-03-14T06:45:44;98514.52;;;7.99;71.26
50682;BME280;36779;52.168;20.878;2023-03-14T06:48:13;98513.64;;;8.06;71.36
50682;BME280;36779;52.168;20.878;2023-03-14T06:50:50;98516.30;;;8.25;71.61
50682;BME280;36779;52.168;20.878;2023-03-14T06:53:20;98517.91;;;8.51;71.81
50682;BME280;36779;52.168;20.878;2023-03-14T06:55:49;98518.73;;;8.78;71.95
50682;BME280;36779;52.168;20.878;2023-03-14T06:58:19;98512.77;;;9.00;71.86
50682;BME280;36779;52.168;20.878;2023-03-14T07:00:48;98507.64;;;9.16;71.56
50682;BME280;36779;52.168;20.878;2023-03-14T07:03:21;98496.65;;;9.34;71.58
50682;BME280;36779;52.168;20.878;2023-03-14T07:05:52;98501.23;;;9.49;71.65
50682;BME280;36779;52.168;20.878;2023-03-14T07:08:21;98510.80;;;9.63;71.46
50682;BME280;36779;52.168;20.878;2023-03-14T07:10:50;98518.80;;;9.73;71.40
50682;BME280;36779;52.168;20.878;2023-03-14T07:13:23;98519.05;;;9.80;71.21
50682;BME280;36779;52.168;20.878;2023-03-14T07:16:08;98525.81;;;9.83;71.06
50682;BME280;36779;52.168;20.878;2023-03-14T07:18:38;98532.29;;;9.87;71.13
50682;BME280;36779;52.168;20.878;2023-03-14T07:21:07;98534.38;;;9.94;71.17
50682;BME280;36779;52.168;20.878;2023-03-14T07:23:38;98528.06;;;10.15;71.47
50682;BME280;36779;52.168;20.878;2023-03-14T07:26:08;98528.36;;;10.68;72.48
50682;BME280;36779;52.168;20.878;2023-03-14T07:28:39;98531.47;;;11.38;73.03
50682;BME280;36779;52.168;20.878;2023-03-14T07:31:11;98529.41;;;11.99;72.87
50682;BME280;36779;52.168;20.878;2023-03-14T07:33:41;98528.16;;;12.33;72.19
50682;BME280;36779;52.168;20.878;2023-03-14T07:36:11;98530.98;;;12.49;71.61
50682;BME280;36779;52.168;20.878;2023-03-14T07:38:44;98537.38;;;12.70;71.69
50682;BME280;36779;52.168;20.878;2023-03-14T07:41:52;98534.75;;;12.89;71.26
50682;BME280;36779;52.168;20.878;2023-03-14T07:44:40;98531.16;;;13.05;70.96
50682;BME280;36779;52.168;20.878;2023-03-14T07:47:09;98529.54;;;13.34;71.17
50682;BME280;36779;52.168;20.878;2023-03-14T07:49:55;98521.47;;;13.74;71.27
50682;BME280;36779;52.168;20.878;2023-03-14T08:32:20;98542.23;;;14.24;68.35
50682;BME280;36779;52.168;20.878;2023-03-14T08:35:09;98549.05;;;14.22;68.61
50682;BME280;36779;52.168;20.878;2023-03-14T08:47:29;98537.94;;;14.37;68.26
50682;BME280;36779;52.168;20.878;2023-03-14T08:55:27;98537.33;;;14.44;68.68
50682;BME280;36779;52.168;20.878;2023-03-14T08:58:07;98539.77;;;14.62;68.66
50682;BME280;36779;52.168;20.878;2023-03-14T09:00:36;98530.69;;;14.74;68.76
50682;BME280;36779;52.168;20.878;2023-03-14T09:03:06;98531.23;;;14.85;68.57
50682;BME280;36779;52.168;20.878;2023-03-14T09:05:35;98535.39;;;14.98;68.58
50682;BME280;36779;52.168;20.878;2023-03-14T09:08:07;98535.83;;;15.01;68.34
50682;BME280;36779;52.168;20.878;2023-03-14T09:10:36;98531.73;;;14.96;67.97
50682;BME280;36779;52.168;20.878;2023-03-14T09:13:06;98525.59;;;14.89;67.85
50682;BME280;36779;52.168;20.878;2023-03-14T09:15:35;98523.77;;;14.79;67.70
50682;BME280;36779;52.168;20.878;2023-03-14T09:18:05;98519.09;;;14.74;67.80
50682;BME280;36779;52.168;20.878;2023-03-14T09:20:36;98514.64;;;14.69;67.44
50682;BME280;36779;52.168;20.878;2023-03-14T09:23:05;98508.81;;;14.65;67.56
50682;BME280;36779;52.168;20.878;2023-03-14T09:25:34;98501.38;;;14.66;67.84
50682;BME280;36779;52.168;20.878;2023-03-14T09:28:04;98500.37;;;14.69;67.56
50682;BME280;36779;52.168;20.878;2023-03-14T09:30:33;98501.94;;;14.72;67.57
50682;BME280;36779;52.168;20.878;2023-03-14T09:33:07;98501.05;;;14.76;67.81
50682;BME280;36779;52.168;20.878;2023-03-14T09:35:36;98498.77;;;14.82;67.74
50682;BME280;36779;52.168;20.878;2023-03-14T09:38:05;98495.90;;;14.88;67.66
50682;BME280;36779;52.168;20.878;2023-03-14T09:40:37;98493.81;;;14.84;67.51
50682;BME280;36779;52.168;20.878;2023-03-14T09:43:08;98490.56;;;14.82;67.48
50682;BME280;36779;52.168;20.878;2023-03-14T09:45:39;98482.70;;;14.78;67.46
50682;BME280;36779;52.168;20.878;2023-03-14T09:48:15;98480.09;;;14.79;67.39
50682;BME280;36779;52.168;20.878;2023-03-14T09:50:48;98473.99;;;14.87;67.48
50682;BME280;36779;52.168;20.878;2023-03-14T09:53:20;98468.52;;;14.97;67.55
50682;BME280;36779;52.168;20.878;2023-03-14T09:55:52;98456.64;;;15.10;67.43
50682;BME280;36779;52.168;20.878;2023-03-14T09:58:24;98443.30;;;15.30;67.62
50682;BME280;36779;52.168;20.878;2023-03-14T10:00:55;98439.95;;;15.54;67.65
50682;BME280;36779;52.168;20.878;2023-03-14T10:03:28;98437.36;;;15.67;67.24
50682;BME280;36779;52.168;20.878;2023-03-14T10:05:58;98434.28;;;15.72;67.08
50682;BME280;36779;52.168;20.878;2023-03-14T10:08:28;98445.22;;;15.80;67.18
50682;BME280;36779;52.168;20.878;2023-03-14T10:10:57;98450.79;;;15.79;66.65
50682;BME280;36779;52.168;20.878;2023-03-14T10:13:28;98450.48;;;15.65;66.38
50682;BME280;36779;52.168;20.878;2023-03-14T10:16:01;98445.37;;;15.47;66.27
50682;BME280;36779;52.168;20.878;2023-03-14T10:18:37;98455.05;;;15.33;66.14
50682;BME280;36779;52.168;20.878;2023-03-14T10:21:16;98450.60;;;15.25;66.47
50682;BME280;36779;52.168;20.878;2023-03-14T10:23:46;98446.29;;;15.22;66.21
50682;BME280;36779;52.168;20.878;2023-03-14T10:26:18;98450.66;;;15.14;66.39
50682;BME280;36779;52.168;20.878;2023-03-14T10:28:54;98458.52;;;15.10;66.42
50682;BME280;36779;52.168;20.878;2023-03-14T10:31:48;98453.96;;;15.05;66.26
50682;BME280;36779;52.168;20.878;2023-03-14T10:34:25;98448.90;;;15.04;66.38
50682;BME280;36779;52.168;20.878;2023-03-14T10:36:56;98446.88;;;15.05;66.34
50682;BME280;36779;52.168;20.878;2023-03-14T10:39:32;98440.48;;;15.13;66.48
50682;BME280;36779;52.168;20.878;2023-03-14T10:42:14;98434.39;;;15.22;66.71
50682;BME280;36779;52.168;20.878;2023-03-14T10:44:43;98425.94;;;15.33;66.72
50682;BME280;36779;52.168;20.878;2023-03-14T10:47:19;98428.23;;;15.44;66.72
50682;BME280;36779;52.168;20.878;2023-03-14T10:49:49;98427.38;;;15.53;66.45
50682;BME280;36779;52.168;20.878;2023-03-14T10:52:22;98427.07;;;15.63;66.58
50682;BME280;36779;52.168;20.878;2023-03-14T10:55:11;98430.09;;;15.71;66.39
50682;BME280;36779;52.168;20.878;2023-03-14T10:57:40;98431.32;;;15.75;66.12
50682;BME280;36779;52.168;20.878;2023-03-14T11:00:19;98429.48;;;15.67;65.83
50682;BME280;36779;52.168;20.878;2023-03-14T11:03:09;98426.25;;;15.56;65.78
50682;BME280;36779;52.168;20.878;2023-03-14T11:05:43;98429.80;;;15.57;65.89
50682;BME280;36779;52.168;20.878;2023-03-14T11:08:18;98429.30;;;15.62;66.10
50682;BME280;36779;52.168;20.878;2023-03-14T11:10:53;98430.61;;;15.56;65.80
50682;BME280;36779;52.168;20.878;2023-03-14T11:13:25;98426.76;;;15.46;65.54
50682;BME280;36779;52.168;20.878;2023-03-14T11:16:13;98430.48;;;15.35;65.40
50682;BME280;36779;52.168;20.878;2023-03-14T11:18:53;98440.02;;;15.23;65.42
50682;BME280;36779;52.168;20.878;2023-03-14T11:21:30;98450.73;;;15.10;65.44
50682;BME280;36779;52.168;20.878;2023-03-14T11:24:29;98459.12;;;14.97;65.33
50682;BME280;36779;52.168;20.878;2023-03-14T11:27:11;98469.14;;;14.79;65.21
50682;BME280;36779;52.168;20.878;2023-03-14T11:29:43;98464.48;;;14.61;65.21
50682;BME280;36779;52.168;20.878;2023-03-14T11:32:19;98450.59;;;14.45;65.21
50682;BME280;36779;52.168;20.878;2023-03-14T11:34:53;98438.41;;;14.36;65.03
50682;BME280;36779;52.168;20.878;2023-03-14T11:37:27;98441.61;;;14.30;65.31
50682;BME280;36779;52.168;20.878;2023-03-14T11:40:06;98444.41;;;14.26;65.40
50682;BME280;36779;52.168;20.878;2023-03-14T11:42:40;98439.63;;;14.25;65.29
50682;BME280;36779;52.168;20.878;2023-03-14T11:45:16;98439.30;;;14.32;65.70
50682;BME280;36779;52.168;20.878;2023-03-14T11:47:50;98442.30;;;14.51;65.87
50682;BME280;36779;52.168;20.878;2023-03-14T11:50:25;98438.55;;;14.68;65.94
50682;BME280;36779;52.168;20.878;2023-03-14T11:53:03;98445.17;;;14.81;65.96
50682;BME280;36779;52.168;20.878;2023-03-14T11:55:35;98445.11;;;14.89;65.63
50682;BME280;36779;52.168;20.878;2023-03-14T11:58:14;98443.80;;;14.93;65.48
50682;BME280;36779;52.168;20.878;2023-03-14T12:00:45;98439.91;;;14.97;65.53
50682;BME280;36779;52.168;20.878;2023-03-14T12:03:19;98453.19;;;15.04;65.69
50682;BME280;36779;52.168;20.878;2023-03-14T12:05:59;98452.65;;;15.04;65.35
50682;BME280;36779;52.168;20.878;2023-03-14T12:08:39;98439.02;;;15.01;65.42
50682;BME280;36779;52.168;20.878;2023-03-14T12:11:22;98421.73;;;15.06;65.60
50682;BME280;36779;52.168;20.878;2023-03-14T12:13:55;98435.83;;;15.13;65.43
50682;BME280;36779;52.168;20.878;2023-03-14T12:16:33;98439.28;;;15.11;65.25
50682;BME280;36779;52.168;20.878;2023-03-14T12:19:28;98444.63;;;15.06;65.23
50682;BME280;36779;52.168;20.878;2023-03-14T12:22:00;98448.68;;;14.96;65.09
50682;BME280;36779;52.168;20.878;2023-03-14T12:24:41;98453.77;;;14.82;64.83
50682;BME280;36779;52.168;20.878;2023-03-14T12:30:28;98450.95;;;14.53;64.84
50682;BME280;36779;52.168;20.878;2023-03-14T12:36:17;98461.18;;;14.21;64.65
50682;BME280;36779;52.168;20.878;2023-03-14T12:38:57;98454.89;;;14.00;64.65
50682;BME280;36779;52.168;20.878;2023-03-14T12:41:42;98453.55;;;13.84;64.87
50682;BME280;36779;52.168;20.878;2023-03-14T12:44:46;98467.33;;;13.72;64.91
50682;BME280;36779;52.168;20.878;2023-03-14T12:50:35;98471.25;;;13.45;64.75
50682;BME280;36779;52.168;20.878;2023-03-14T12:53:41;98469.43;;;13.34;64.55
50682;BME280;36779;52.168;20.878;2023-03-14T12:56:21;98470.19;;;13.19;64.65
50682;BME280;36779;52.168;20.878;2023-03-14T13:01:54;98473.25;;;12.86;64.52
50682;BME280;36779;52.168;20.878;2023-03-14T13:04:29;98476.05;;;12.66;64.54
50682;BME280;36779;52.168;20.878;2023-03-14T13:07:12;98477.30;;;12.49;64.80
50682;BME280;36779;52.168;20.878;2023-03-14T13:12:51;98477.42;;;12.23;64.67
50682;BME280;36779;52.168;20.878;2023-03-14T13:15:30;98479.58;;;12.11;64.80
50682;BME280;36779;52.168;20.878;2023-03-14T13:18:09;98484.91;;;12.01;64.92
50682;BME280;36779;52.168;20.878;2023-03-14T13:20:41;98474.18;;;11.91;65.09
50682;BME280;36779;52.168;20.878;2023-03-14T13:23:22;98478.55;;;11.82;64.87
50682;BME280;36779;52.168;20.878;2023-03-14T13:25:52;98486.08;;;11.72;64.98
50682;BME280;36779;52.168;20.878;2023-03-14T13:28:22;98486.80;;;11.63;65.03
50682;BME280;36779;52.168;20.878;2023-03-14T13:31:18;98486.76;;;11.56;65.09
50682;BME280;36779;52.168;20.878;2023-03-14T13:34:06;98485.67;;;11.52;65.40
50682;BME280;36779;52.168;20.878;2023-03-14T13:36:40;98489.34;;;11.50;65.44
50682;BME280;36779;52.168;20.878;2023-03-14T13:39:17;98485.79;;;11.46;65.30
50682;BME280;36779;52.168;20.878;2023-03-14T13:41:57;98488.98;;;11.40;65.22
50682;BME280;36779;52.168;20.878;2023-03-14T13:44:41;98487.86;;;11.35;65.53
50682;BME280;36779;52.168;20.878;2023-03-14T13:47:17;98488.19;;;11.33;65.65
50682;BME280;36779;52.168;20.878;2023-03-14T13:50:16;98484.55;;;11.29;65.71
50682;BME280;36779;52.168;20.878;2023-03-14T13:53:02;98485.20;;;11.26;65.68
50682;BME280;36779;52.168;20.878;2023-03-14T13:55:45;98486.44;;;11.24;65.95
50682;BME280;36779;52.168;20.878;2023-03-14T13:58:32;98485.14;;;11.21;65.72
50682;BME280;36779;52.168;20.878;2023-03-14T14:01:16;98479.48;;;11.19;65.87
50682;BME280;36779;52.168;20.878;2023-03-14T14:03:53;98476.27;;;11.15;65.89
50682;BME280;36779;52.168;20.878;2023-03-14T14:06:37;98479.11;;;11.11;65.93
50682;BME280;36779;52.168;20.878;2023-03-14T14:09:14;98477.45;;;11.08;66.01
50682;BME280;36779;52.168;20.878;2023-03-14T14:11:58;98477.96;;;11.03;66.02
50682;BME280;36779;52.168;20.878;2023-03-14T14:14:51;98478.89;;;10.97;66.07
50682;BME280;36779;52.168;20.878;2023-03-14T14:17:25;98479.63;;;10.94;66.16
50682;BME280;36779;52.168;20.878;2023-03-14T14:20:26;98476.82;;;10.90;66.23
50682;BME280;36779;52.168;20.878;2023-03-14T14:23:11;98470.94;;;10.81;66.13
50682;BME280;36779;52.168;20.878;2023-03-14T14:25:48;98466.25;;;10.73;66.27
50682;BME280;36779;52.168;20.878;2023-03-14T14:28:26;98467.25;;;10.71;66.36
50682;BME280;36779;52.168;20.878;2023-03-14T14:31:16;98465.54;;;10.70;66.37
50682;BME280;36779;52.168;20.878;2023-03-14T14:33:58;98458.80;;;10.68;66.50
50682;BME280;36779;52.168;20.878;2023-03-14T14:36:31;98449.45;;;10.66;66.54
50682;BME280;36779;52.168;20.878;2023-03-14T14:39:14;98446.94;;;10.64;66.57
50682;BME280;36779;52.168;20.878;2023-03-14T14:41:57;98444.96;;;10.65;66.61
50682;BME280;36779;52.168;20.878;2023-03-14T14:44:30;98450.96;;;10.69;66.85
50682;BME280;36779;52.168;20.878;2023-03-14T14:47:05;98453.55;;;10.68;66.77